sensor_id;sensor_type;location;lat;lon;timestamp;pressure;altitude;pressure_sealevel;temperature;humidity
54882;BME280;40775;51.448;4.742;2022-08-07T00:00:14;102553.34;;;18.52;57.57
54882;BME280;40775;51.448;4.742;2022-08-07T00:02:44;102547.06;;;18.48;57.60
54882;BME280;40775;51.448;4.742;2022-08-07T00:05:12;102550.59;;;18.47;57.73
54882;BME280;40775;51.448;4.742;2022-08-07T00:07:39;102546.16;;;18.45;57.77
54882;BME280;40775;51.448;4.742;2022-08-07T00:10:08;102552.28;;;18.39;57.56
54882;BME280;40775;51.448;4.742;2022-08-07T00:12:53;102548.75;;;18.42;57.86
54882;BME280;40775;51.448;4.742;2022-08-07T00:15:27;102542.47;;;18.37;57.93
54882;BME280;40775;51.448;4.742;2022-08-07T00:18:16;102540.69;;;18.36;57.93
54882;BME280;40775;51.448;4.742;2022-08-07T00:21:00;102539.69;;;18.31;58.11
54882;BME280;40775;51.448;4.742;2022-08-07T00:23:37;102531.69;;;18.28;58.46
54882;BME280;40775;51.448;4.742;2022-08-07T00:26:09;102526.34;;;18.26;58.32
54882;BME280;40775;51.448;4.742;2022-08-07T00:28:44;102531.59;;;18.21;58.34
54882;BME280;40775;51.448;4.742;2022-08-07T00:31:22;102528.03;;;18.21;58.61
54882;BME280;40775;51.448;4.742;2022-08-07T00:34:04;102521.75;;;18.14;58.45
54882;BME280;40775;51.448;4.742;2022-08-07T00:36:35;102517.22;;;18.09;58.63
54882;BME280;40775;51.448;4.742;2022-08-07T00:39:10;102518.91;;;18.05;58.68
54882;BME280;40775;51.448;4.742;2022-08-07T00:41:55;102518.06;;;18.08;58.91
54882;BME280;40775;51.448;4.742;2022-08-07T00:44:32;102513.56;;;18.02;58.91
54882;BME280;40775;51.448;4.742;2022-08-07T00:47:03;102510.91;;;18.04;58.90
54882;BME280;40775;51.448;4.742;2022-08-07T00:49:41;102501.09;;;18.00;58.93
54882;BME280;40775;51.448;4.742;2022-08-07T00:52:29;102518.78;;;17.98;59.21
54882;BME280;40775;51.448;4.742;2022-08-07T00:54:59;102516.97;;;17.95;59.38
54882;BME280;40775;51.448;4.742;2022-08-07T00:57:37;102511.72;;;17.98;59.22
54882;BME280;40775;51.448;4.742;2022-08-07T01:00:22;102507.22;;;17.94;59.10
54882;BME280;40775;51.448;4.742;2022-08-07T01:02:50;102513.38;;;17.90;59.29
54882;BME280;40775;51.448;4.742;2022-08-07T01:05:20;102506.22;;;17.87;59.36
54882;BME280;40775;51.448;4.742;2022-08-07T01:07:50;102505.28;;;17.84;59.26
54882;BME280;40775;51.448;4.742;2022-08-07T01:10:18;102505.97;;;17.74;59.40
54882;BME280;40775;51.448;4.742;2022-08-07T01:12:47;102508.53;;;17.68;59.77
54882;BME280;40775;51.448;4.742;2022-08-07T01:15:22;102504.03;;;17.65;59.83
54882;BME280;40775;51.448;4.742;2022-08-07T01:18:09;102509.28;;;17.60;59.80
54882;BME280;40775;51.448;4.742;2022-08-07T01:20:47;102501.25;;;17.57;59.97
54882;BME280;40775;51.448;4.742;2022-08-07T01:23:27;102500.25;;;17.52;59.94
54882;BME280;40775;51.448;4.742;2022-08-07T01:26:08;102495.66;;;17.44;59.89
54882;BME280;40775;51.448;4.742;2022-08-07T01:28:42;102499.97;;;17.37;60.41
54882;BME280;40775;51.448;4.742;2022-08-07T01:31:18;102499.09;;;17.37;60.53
54882;BME280;40775;51.448;4.742;2022-08-07T01:33:46;102500.75;;;17.32;59.95
54882;BME280;40775;51.448;4.742;2022-08-07T01:36:24;102498.13;;;17.33;60.46
54882;BME280;40775;51.448;4.742;2022-08-07T01:39:00;102494.59;;;17.33;60.33
54882;BME280;40775;51.448;4.742;2022-08-07T01:41:35;102506.09;;;17.33;60.26
54882;BME280;40775;51.448;4.742;2022-08-07T01:44:04;102504.34;;;17.34;60.91
54882;BME280;40775;51.448;4.742;2022-08-07T01:46:32;102495.38;;;17.27;60.99
54882;BME280;40775;51.448;4.742;2022-08-07T01:49:00;102488.03;;;17.15;61.22
54882;BME280;40775;51.448;4.742;2022-08-07T01:51:29;102486.22;;;17.11;61.18
54882;BME280;40775;51.448;4.742;2022-08-07T01:54:19;102491.47;;;17.10;61.19
54882;BME280;40775;51.448;4.742;2022-08-07T01:57:07;102486.06;;;17.04;61.07
54882;BME280;40775;51.448;4.742;2022-08-07T02:00:09;102490.41;;;17.00;61.14
54882;BME280;40775;51.448;4.742;2022-08-07T02:02:54;102493.03;;;16.98;61.78
54882;BME280;40775;51.448;4.742;2022-08-07T02:05:55;102489.53;;;16.99;62.08
54882;BME280;40775;51.448;4.742;2022-08-07T02:08:27;102495.63;;;16.97;61.95
54882;BME280;40775;51.448;4.742;2022-08-07T02:10:57;102489.38;;;16.93;62.11
54882;BME280;40775;51.448;4.742;2022-08-07T02:13:32;102494.69;;;16.93;62.11
54882;BME280;40775;51.448;4.742;2022-08-07T02:16:21;102491.97;;;16.90;61.95
54882;BME280;40775;51.448;4.742;2022-08-07T02:19:03;102493.75;;;16.91;61.94
54882;BME280;40775;51.448;4.742;2022-08-07T02:21:52;102491.97;;;16.90;62.08
54882;BME280;40775;51.448;4.742;2022-08-07T02:24:27;102500.72;;;16.86;61.73
54882;BME280;40775;51.448;4.742;2022-08-07T02:26:58;102486.56;;;16.86;62.34
54882;BME280;40775;51.448;4.742;2022-08-07T02:29:29;102484.63;;;16.77;62.55
54882;BME280;40775;51.448;4.742;2022-08-07T02:31:58;102484.75;;;16.83;62.66
54882;BME280;40775;51.448;4.742;2022-08-07T02:34:28;102484.66;;;16.79;61.92
54882;BME280;40775;51.448;4.742;2022-08-07T02:36:57;102488.22;;;16.79;62.08
54882;BME280;40775;51.448;4.742;2022-08-07T02:39:27;102475.81;;;16.78;61.87
54882;BME280;40775;51.448;4.742;2022-08-07T02:42:16;102476.88;;;16.88;62.27
54882;BME280;40775;51.448;4.742;2022-08-07T02:44:48;102477.72;;;16.85;62.22
54882;BME280;40775;51.448;4.742;2022-08-07T02:47:17;102477.72;;;16.85;61.94
54882;BME280;40775;51.448;4.742;2022-08-07T02:50:06;102467.94;;;16.83;62.21
54882;BME280;40775;51.448;4.742;2022-08-07T02:52:40;102467.84;;;16.78;62.73
54882;BME280;40775;51.448;4.742;2022-08-07T02:55:20;102458.91;;;16.73;62.88
54882;BME280;40775;51.448;4.742;2022-08-07T02:58:11;102464.22;;;16.73;63.04
54882;BME280;40775;51.448;4.742;2022-08-07T03:00:40;102459.78;;;16.72;62.96
54882;BME280;40775;51.448;4.742;2022-08-07T03:03:15;102474.69;;;16.68;62.87
54882;BME280;40775;51.448;4.742;2022-08-07T03:05:50;102471.19;;;16.69;63.12
54882;BME280;40775;51.448;4.742;2022-08-07T03:08:20;102464.94;;;16.67;62.95
54882;BME280;40775;51.448;4.742;2022-08-07T03:10:55;102473.69;;;16.63;62.64
54882;BME280;40775;51.448;4.742;2022-08-07T03:13:23;102468.47;;;16.66;63.04
54882;BME280;40775;51.448;4.742;2022-08-07T03:15:53;102473.69;;;16.63;63.49
54882;BME280;40775;51.448;4.742;2022-08-07T03:18:24;102470.91;;;16.57;63.34
54882;BME280;40775;51.448;4.742;2022-08-07T03:21:04;102471.84;;;16.61;63.18
54882;BME280;40775;51.448;4.742;2022-08-07T03:23:36;102462.19;;;16.63;63.48
54882;BME280;40775;51.448;4.742;2022-08-07T03:26:32;102470.00;;;16.57;62.86
54882;BME280;40775;51.448;4.742;2022-08-07T03:29:02;102462.00;;;16.54;63.02
54882;BME280;40775;51.448;4.742;2022-08-07T03:31:38;102464.69;;;16.57;63.39
54882;BME280;40775;51.448;4.742;2022-08-07T03:34:10;102456.78;;;16.58;63.77
54882;BME280;40775;51.448;4.742;2022-08-07T03:36:50;102454.09;;;16.57;63.54
54882;BME280;40775;51.448;4.742;2022-08-07T03:39:19;102454.94;;;16.54;63.57
54882;BME280;40775;51.448;4.742;2022-08-07T03:42:08;102468.09;;;16.50;63.78
54882;BME280;40775;51.448;4.742;2022-08-07T03:44:37;102471.53;;;16.46;64.02
54882;BME280;40775;51.448;4.742;2022-08-07T03:47:05;102470.69;;;16.47;63.88
54882;BME280;40775;51.448;4.742;2022-08-07T03:49:40;102460.81;;;16.41;63.98
54882;BME280;40775;51.448;4.742;2022-08-07T03:52:15;102470.50;;;16.41;64.28
54882;BME280;40775;51.448;4.742;2022-08-07T03:55:03;102469.66;;;16.42;64.48
54882;BME280;40775;51.448;4.742;2022-08-07T03:57:35;102474.06;;;16.41;64.68
54882;BME280;40775;51.448;4.742;2022-08-07T04:00:23;102487.44;;;16.46;64.39
54882;BME280;40775;51.448;4.742;2022-08-07T04:03:00;102480.34;;;16.45;64.20
54882;BME280;40775;51.448;4.742;2022-08-07T04:05:33;102486.56;;;16.45;64.44
54882;BME280;40775;51.448;4.742;2022-08-07T04:08:13;102491.72;;;16.41;64.03
54882;BME280;40775;51.448;4.742;2022-08-07T04:10:44;102479.41;;;16.43;64.59
54882;BME280;40775;51.448;4.742;2022-08-07T04:13:35;102491.72;;;16.41;64.28
54882;BME280;40775;51.448;4.742;2022-08-07T04:16:22;102485.50;;;16.38;64.47
54882;BME280;40775;51.448;4.742;2022-08-07T04:18:59;102488.03;;;16.34;63.93
54882;BME280;40775;51.448;4.742;2022-08-07T04:21:41;102481.91;;;16.36;64.48
54882;BME280;40775;51.448;4.742;2022-08-07T04:24:26;102491.56;;;16.33;64.57
54882;BME280;40775;51.448;4.742;2022-08-07T04:27:04;102489.81;;;16.33;64.58
54882;BME280;40775;51.448;4.742;2022-08-07T04:29:46;102486.31;;;16.36;64.21
54882;BME280;40775;51.448;4.742;2022-08-07T04:32:29;102482.84;;;16.38;64.06
54882;BME280;40775;51.448;4.742;2022-08-07T04:35:03;102487.19;;;16.35;63.75
54882;BME280;40775;51.448;4.742;2022-08-07T04:37:33;102488.97;;;16.36;63.82
54882;BME280;40775;51.448;4.742;2022-08-07T04:40:22;102490.78;;;16.38;64.05
54882;BME280;40775;51.448;4.742;2022-08-07T04:42:56;102485.50;;;16.38;63.92
54882;BME280;40775;51.448;4.742;2022-08-07T04:45:37;102493.47;;;16.40;63.95
54882;BME280;40775;51.448;4.742;2022-08-07T04:57:31;102502.28;;;16.39;64.54
54882;BME280;40775;51.448;4.742;2022-08-07T05:06:14;102500.59;;;16.43;64.99
54882;BME280;40775;51.448;4.742;2022-08-07T05:09:26;102496.47;;;16.54;65.09
54882;BME280;40775;51.448;4.742;2022-08-07T05:12:10;102503.63;;;16.58;64.84
54882;BME280;40775;51.448;4.742;2022-08-07T05:14:54;102495.69;;;16.59;64.80
54882;BME280;40775;51.448;4.742;2022-08-07T05:17:30;102503.06;;;16.71;64.73
54882;BME280;40775;51.448;4.742;2022-08-07T05:20:23;102501.44;;;16.78;64.90
54882;BME280;40775;51.448;4.742;2022-08-07T05:22:56;102508.84;;;16.94;64.68
54882;BME280;40775;51.448;4.742;2022-08-07T05:25:26;102510.75;;;16.99;64.68
54882;BME280;40775;51.448;4.742;2022-08-07T05:28:15;102509.09;;;17.06;64.46
54882;BME280;40775;51.448;4.742;2022-08-07T05:30:52;102517.19;;;17.12;64.57
54882;BME280;40775;51.448;4.742;2022-08-07T05:33:22;102505.84;;;17.21;64.75
54882;BME280;40775;51.448;4.742;2022-08-07T05:35:52;102500.78;;;17.33;64.86
54882;BME280;40775;51.448;4.742;2022-08-07T05:38:21;102505.28;;;17.37;64.35
54882;BME280;40775;51.448;4.742;2022-08-07T05:41:10;102507.31;;;17.52;64.76
54882;BME280;40775;51.448;4.742;2022-08-07T05:43:48;102499.44;;;17.55;64.51
54882;BME280;40775;51.448;4.742;2022-08-07T05:46:36;102501.41;;;17.67;64.13
54882;BME280;40775;51.448;4.742;2022-08-07T05:49:07;102496.19;;;17.70;64.41
54882;BME280;40775;51.448;4.742;2022-08-07T05:51:43;102504.38;;;17.82;64.29
54882;BME280;40775;51.448;4.742;2022-08-07T05:54:15;102504.47;;;17.88;64.17
54882;BME280;40775;51.448;4.742;2022-08-07T05:57:03;102509.88;;;17.94;63.88
54882;BME280;40775;51.448;4.742;2022-08-07T05:59:31;102510.91;;;18.04;63.90
54882;BME280;40775;51.448;4.742;2022-08-07T06:02:27;102516.38;;;18.11;63.95
54882;BME280;40775;51.448;4.742;2022-08-07T06:05:05;102519.13;;;18.17;63.86
54882;BME280;40775;51.448;4.742;2022-08-07T06:07:36;102532.53;;;18.25;63.76
54882;BME280;40775;51.448;4.742;2022-08-07T06:10:25;102528.22;;;18.33;63.66
54882;BME280;40775;51.448;4.742;2022-08-07T06:12:52;102532.78;;;18.40;63.80
54882;BME280;40775;51.448;4.742;2022-08-07T06:15:21;102534.69;;;18.49;63.77
54882;BME280;40775;51.448;4.742;2022-08-07T06:18:08;102526.00;;;18.62;63.79
54882;BME280;40775;51.448;4.742;2022-08-07T06:20:39;102527.97;;;18.74;63.30
54882;BME280;40775;51.448;4.742;2022-08-07T06:23:27;102528.06;;;18.81;62.88
54882;BME280;40775;51.448;4.742;2022-08-07T06:26:15;102528.22;;;18.91;62.72
54882;BME280;40775;51.448;4.742;2022-08-07T06:28:54;102525.72;;;19.06;62.77
54882;BME280;40775;51.448;4.742;2022-08-07T06:31:25;102525.00;;;19.19;62.53
54882;BME280;40775;51.448;4.742;2022-08-07T06:34:12;102518.00;;;19.29;62.21
54882;BME280;40775;51.448;4.742;2022-08-07T06:36:40;102514.59;;;19.43;62.24
54882;BME280;40775;51.448;4.742;2022-08-07T06:39:09;102517.44;;;19.56;61.87
54882;BME280;40775;51.448;4.742;2022-08-07T06:42:32;102513.94;;;19.61;61.81
54882;BME280;40775;51.448;4.742;2022-08-07T06:45:07;102505.22;;;19.79;61.95
54882;BME280;40775;51.448;4.742;2022-08-07T06:47:37;102507.94;;;19.84;61.68
54882;BME280;40775;51.448;4.742;2022-08-07T06:50:24;102508.13;;;20.05;61.38
54882;BME280;40775;51.448;4.742;2022-08-07T06:52:54;102509.00;;;20.04;60.73
54882;BME280;40775;51.448;4.742;2022-08-07T06:55:27;102509.03;;;20.12;61.07
54882;BME280;40775;51.448;4.742;2022-08-07T06:58:15;102510.13;;;20.36;60.62
54882;BME280;40775;51.448;4.742;2022-08-07T07:00:47;102504.84;;;20.46;60.12
54882;BME280;40775;51.448;4.742;2022-08-07T07:03:19;102508.53;;;20.66;59.82
54882;BME280;40775;51.448;4.742;2022-08-07T07:06:09;102505.03;;;20.76;59.35
54882;BME280;40775;51.448;4.742;2022-08-07T07:08:37;102511.25;;;20.80;58.62
54882;BME280;40775;51.448;4.742;2022-08-07T07:11:12;102506.00;;;20.95;58.18
54882;BME280;40775;51.448;4.742;2022-08-07T07:14:00;102509.56;;;21.00;57.67
54882;BME280;40775;51.448;4.742;2022-08-07T07:16:35;102509.59;;;21.03;56.54
54882;BME280;40775;51.448;4.742;2022-08-07T07:19:39;102496.28;;;21.15;56.94
54882;BME280;40775;51.448;4.742;2022-08-07T07:22:26;102498.13;;;21.28;56.31
54882;BME280;40775;51.448;4.742;2022-08-07T07:25:15;102486.59;;;21.42;56.26
54882;BME280;40775;51.448;4.742;2022-08-07T07:31:38;102478.59;;;21.81;56.16
54882;BME280;40775;51.448;4.742;2022-08-07T07:34:18;102481.28;;;21.74;54.71
54882;BME280;40775;51.448;4.742;2022-08-07T07:37:01;102486.59;;;21.90;53.76
54882;BME280;40775;51.448;4.742;2022-08-07T07:39:53;102488.38;;;21.88;53.47
54882;BME280;40775;51.448;4.742;2022-08-07T07:42:25;102488.41;;;21.99;53.21
54882;BME280;40775;51.448;4.742;2022-08-07T07:45:04;102483.06;;;22.10;53.86
54882;BME280;40775;51.448;4.742;2022-08-07T07:47:34;102483.94;;;22.24;53.76
54882;BME280;40775;51.448;4.742;2022-08-07T07:50:21;102483.94;;;22.32;53.29
54882;BME280;40775;51.448;4.742;2022-08-07T07:53:08;102491.97;;;22.21;53.00
54882;BME280;40775;51.448;4.742;2022-08-07T07:55:52;102493.66;;;22.59;53.90
54882;BME280;40775;51.448;4.742;2022-08-07T07:58:33;102491.88;;;22.58;52.52
54882;BME280;40775;51.448;4.742;2022-08-07T08:01:09;102491.81;;;22.77;52.41
54882;BME280;40775;51.448;4.742;2022-08-07T08:04:02;102489.16;;;22.76;51.92
54882;BME280;40775;51.448;4.742;2022-08-07T08:06:38;102493.59;;;22.86;51.09
54882;BME280;40775;51.448;4.742;2022-08-07T08:09:22;102485.47;;;23.00;51.52
54882;BME280;40775;51.448;4.742;2022-08-07T08:11:53;102486.34;;;23.09;51.31
54882;BME280;40775;51.448;4.742;2022-08-07T08:14:34;102488.94;;;23.22;51.22
54882;BME280;40775;51.448;4.742;2022-08-07T08:17:04;102488.91;;;23.25;51.12
54882;BME280;40775;51.448;4.742;2022-08-07T08:20:01;102494.25;;;23.35;50.79
54882;BME280;40775;51.448;4.742;2022-08-07T08:22:49;102493.31;;;23.38;50.87
54882;BME280;40775;51.448;4.742;2022-08-07T08:25:38;102478.06;;;23.48;50.54
54882;BME280;40775;51.448;4.742;2022-08-07T08:28:35;102482.47;;;23.62;49.80
54882;BME280;40775;51.448;4.742;2022-08-07T08:31:22;102485.25;;;23.41;49.10
54882;BME280;40775;51.448;4.742;2022-08-07T08:34:10;102478.84;;;23.68;49.85
54882;BME280;40775;51.448;4.742;2022-08-07T08:36:56;102480.66;;;23.66;49.60
54882;BME280;40775;51.448;4.742;2022-08-07T08:39:26;102485.84;;;23.87;48.92
54882;BME280;40775;51.448;4.742;2022-08-07T08:42:38;102483.88;;;24.04;49.76
54882;BME280;40775;51.448;4.742;2022-08-07T08:45:17;102480.25;;;24.07;49.71
54882;BME280;40775;51.448;4.742;2022-08-07T08:50:49;102487.31;;;24.20;49.95
54882;BME280;40775;51.448;4.742;2022-08-07T08:53:24;102476.53;;;24.23;49.35
54882;BME280;40775;51.448;4.742;2022-08-07T08:58:48;102471.91;;;24.42;48.01
54882;BME280;40775;51.448;4.742;2022-08-07T09:07:16;102467.91;;;24.75;47.74
54882;BME280;40775;51.448;4.742;2022-08-07T09:10:06;102465.84;;;24.99;47.98
54882;BME280;40775;51.448;4.742;2022-08-07T09:12:49;102467.59;;;25.03;47.49
54882;BME280;40775;51.448;4.742;2022-08-07T09:15:29;102455.97;;;25.01;46.80
54882;BME280;40775;51.448;4.742;2022-08-07T09:21:35;102446.94;;;25.06;45.95
54882;BME280;40775;51.448;4.742;2022-08-07T09:30:22;102442.72;;;25.45;45.57
54882;BME280;40775;51.448;4.742;2022-08-07T09:33:14;102447.19;;;25.46;45.12
54882;BME280;40775;51.448;4.742;2022-08-07T09:36:33;102442.31;;;25.73;44.88
54882;BME280;40775;51.448;4.742;2022-08-07T09:39:35;102439.19;;;25.97;46.12
54882;BME280;40775;51.448;4.742;2022-08-07T09:45:32;102434.06;;;25.83;44.55
54882;BME280;40775;51.448;4.742;2022-08-07T09:48:44;102427.25;;;26.12;44.80
54882;BME280;40775;51.448;4.742;2022-08-07T09:52:03;102433.59;;;26.09;43.98
54882;BME280;40775;51.448;4.742;2022-08-07T10:00:51;102419.94;;;26.18;42.96
54882;BME280;40775;51.448;4.742;2022-08-07T10:06:54;102416.38;;;26.63;41.49
54882;BME280;40775;51.448;4.742;2022-08-07T10:10:17;102413.50;;;26.70;42.26
54882;BME280;40775;51.448;4.742;2022-08-07T10:33:29;102395.41;;;27.53;39.93
54882;BME280;40775;51.448;4.742;2022-08-07T10:37:26;102393.72;;;27.49;39.29
54882;BME280;40775;51.448;4.742;2022-08-07T10:43:00;102388.88;;;27.61;39.53
54882;BME280;40775;51.448;4.742;2022-08-07T10:45:42;102395.63;;;27.79;38.59
54882;BME280;40775;51.448;4.742;2022-08-07T10:48:49;102387.19;;;27.91;39.30
54882;BME280;40775;51.448;4.742;2022-08-07T10:51:36;102390.44;;;28.04;39.01
54882;BME280;40775;51.448;4.742;2022-08-07T10:54:56;102385.09;;;28.02;39.14
54882;BME280;40775;51.448;4.742;2022-08-07T10:58:14;102380.09;;;28.20;38.94
54882;BME280;40775;51.448;4.742;2022-08-07T11:01:29;102371.91;;;28.24;39.16
54882;BME280;40775;51.448;4.742;2022-08-07T11:04:35;102373.53;;;27.97;38.56
54882;BME280;40775;51.448;4.742;2022-08-07T11:10:23;102354.38;;;28.67;38.81
54882;BME280;40775;51.448;4.742;2022-08-07T11:15:37;102357.75;;;28.46;37.88
54882;BME280;40775;51.448;4.742;2022-08-07T11:18:32;102350.16;;;28.58;37.42
54882;BME280;40775;51.448;4.742;2022-08-07T11:22:01;102343.81;;;28.59;37.16
54882;BME280;40775;51.448;4.742;2022-08-07T11:24:27;102340.97;;;28.64;37.09
54882;BME280;40775;51.448;4.742;2022-08-07T11:27:18;102329.91;;;28.72;37.50
54882;BME280;40775;51.448;4.742;2022-08-07T11:30:16;102336.25;;;28.71;37.61
54882;BME280;40775;51.448;4.742;2022-08-07T11:33:32;102336.44;;;28.94;37.82
54882;BME280;40775;51.448;4.742;2022-08-07T11:39:59;102325.53;;;28.68;37.38
54882;BME280;40775;51.448;4.742;2022-08-07T11:46:42;102329.09;;;29.24;37.03
54882;BME280;40775;51.448;4.742;2022-08-07T11:52:54;102318.69;;;28.85;35.96
54882;BME280;40775;51.448;4.742;2022-08-07T11:56:07;102310.44;;;28.90;35.48
54882;BME280;40775;51.448;4.742;2022-08-07T11:59:18;102316.19;;;29.07;35.59
54882;BME280;40775;51.448;4.742;2022-08-07T12:08:17;102307.53;;;29.22;35.49
54882;BME280;40775;51.448;4.742;2022-08-07T12:11:09;102305.34;;;29.07;35.07
54882;BME280;40775;51.448;4.742;2022-08-07T12:14:06;102295.16;;;29.15;34.69
54882;BME280;40775;51.448;4.742;2022-08-07T12:16:51;102301.50;;;29.14;35.53
54882;BME280;40775;51.448;4.742;2022-08-07T12:19:48;102303.22;;;29.17;34.15
54882;BME280;40775;51.448;4.742;2022-08-07T12:26:45;102291.66;;;29.12;34.62
54882;BME280;40775;51.448;4.742;2022-08-07T12:29:20;102293.72;;;29.05;34.47
54882;BME280;40775;51.448;4.742;2022-08-07T12:34:49;102298.19;;;29.06;34.53
54882;BME280;40775;51.448;4.742;2022-08-07T12:37:24;102288.22;;;29.33;34.42
54882;BME280;40775;51.448;4.742;2022-08-07T12:40:23;102288.88;;;29.66;33.78
54882;BME280;40775;51.448;4.742;2022-08-07T12:43:12;102281.28;;;29.51;33.87
54882;BME280;40775;51.448;4.742;2022-08-07T12:46:45;102281.06;;;29.57;33.82
54882;BME280;40775;51.448;4.742;2022-08-07T12:52:29;102291.56;;;29.66;33.80
54882;BME280;40775;51.448;4.742;2022-08-07T12:55:26;102282.44;;;29.94;33.17
54882;BME280;40775;51.448;4.742;2022-08-07T12:58:17;102279.16;;;29.84;32.69
54882;BME280;40775;51.448;4.742;2022-08-07T13:13:26;102266.88;;;29.99;31.60
54882;BME280;40775;51.448;4.742;2022-08-07T13:19:49;102266.06;;;29.97;32.28
54882;BME280;40775;51.448;4.742;2022-08-07T13:23:06;102263.03;;;30.06;30.65
54882;BME280;40775;51.448;4.742;2022-08-07T13:26:19;102263.59;;;29.91;30.88
54882;BME280;40775;51.448;4.742;2022-08-07T13:31:56;102263.84;;;29.83;29.85
54882;BME280;40775;51.448;4.742;2022-08-07T13:35:06;102258.63;;;29.78;29.49
54882;BME280;40775;51.448;4.742;2022-08-07T13:40:53;102256.00;;;30.00;30.03
54882;BME280;40775;51.448;4.742;2022-08-07T13:43:26;102242.13;;;29.84;30.60
54882;BME280;40775;51.448;4.742;2022-08-07T13:46:01;102252.00;;;29.87;29.91
54882;BME280;40775;51.448;4.742;2022-08-07T13:48:51;102250.16;;;29.64;29.19
54882;BME280;40775;51.448;4.742;2022-08-07T13:51:27;102251.25;;;29.59;29.00
54882;BME280;40775;51.448;4.742;2022-08-07T13:54:17;102240.31;;;29.62;29.32
54882;BME280;40775;51.448;4.742;2022-08-07T13:56:53;102245.03;;;29.80;29.53
54882;BME280;40775;51.448;4.742;2022-08-07T13:59:30;102246.97;;;29.76;30.20
54882;BME280;40775;51.448;4.742;2022-08-07T14:02:05;102242.00;;;29.89;30.61
54882;BME280;40775;51.448;4.742;2022-08-07T14:04:56;102246.91;;;29.78;29.87
54882;BME280;40775;51.448;4.742;2022-08-07T14:07:33;102243.56;;;29.95;30.32
54882;BME280;40775;51.448;4.742;2022-08-07T14:10:23;102232.97;;;29.89;29.54
54882;BME280;40775;51.448;4.742;2022-08-07T14:12:58;102225.31;;;29.76;29.74
54882;BME280;40775;51.448;4.742;2022-08-07T14:15:35;102240.28;;;29.87;29.76
54882;BME280;40775;51.448;4.742;2022-08-07T14:18:30;102232.13;;;29.63;28.70
54882;BME280;40775;51.448;4.742;2022-08-07T14:22:01;102245.19;;;29.26;28.83
54882;BME280;40775;51.448;4.742;2022-08-07T14:24:39;102233.31;;;29.79;28.63
54882;BME280;40775;51.448;4.742;2022-08-07T14:27:11;102235.00;;;29.82;28.91
54882;BME280;40775;51.448;4.742;2022-08-07T14:30:07;102226.56;;;29.91;27.86
54882;BME280;40775;51.448;4.742;2022-08-07T14:32:44;102233.31;;;29.79;28.47
54882;BME280;40775;51.448;4.742;2022-08-07T14:35:23;102234.03;;;29.61;28.00
54882;BME280;40775;51.448;4.742;2022-08-07T14:38:12;102226.94;;;29.57;28.66
54882;BME280;40775;51.448;4.742;2022-08-07T14:41:06;102222.97;;;29.91;28.95
54882;BME280;40775;51.448;4.742;2022-08-07T14:43:43;102212.41;;;29.83;28.34
54882;BME280;40775;51.448;4.742;2022-08-07T14:46:27;102222.41;;;29.58;28.98
54882;BME280;40775;51.448;4.742;2022-08-07T14:48:59;102226.50;;;29.44;28.90
54882;BME280;40775;51.448;4.742;2022-08-07T14:51:48;102219.50;;;29.64;29.04
54882;BME280;40775;51.448;4.742;2022-08-07T14:54:33;102225.41;;;29.50;29.25
54882;BME280;40775;51.448;4.742;2022-08-07T14:57:14;102217.47;;;29.44;29.65
54882;BME280;40775;51.448;4.742;2022-08-07T15:00:04;102218.31;;;29.71;28.34
54882;BME280;40775;51.448;4.742;2022-08-07T15:02:34;102208.72;;;29.62;29.11
54882;BME280;40775;51.448;4.742;2022-08-07T15:05:06;102209.59;;;29.63;28.51
54882;BME280;40775;51.448;4.742;2022-08-07T15:07:55;102207.34;;;29.50;28.06
54882;BME280;40775;51.448;4.742;2022-08-07T15:10:43;102203.28;;;29.37;27.63
54882;BME280;40775;51.448;4.742;2022-08-07T15:13:32;102207.88;;;29.35;28.29
54882;BME280;40775;51.448;4.742;2022-08-07T15:16:06;102206.25;;;29.30;28.54
54882;BME280;40775;51.448;4.742;2022-08-07T15:18:43;102202.88;;;29.49;28.45
54882;BME280;40775;51.448;4.742;2022-08-07T15:21:32;102194.38;;;29.60;29.22
54882;BME280;40775;51.448;4.742;2022-08-07T15:24:17;102204.00;;;29.17;29.59
54882;BME280;40775;51.448;4.742;2022-08-07T15:27:10;102194.66;;;29.26;29.50
54882;BME280;40775;51.448;4.742;2022-08-07T15:29:44;102193.25;;;29.41;29.00
54882;BME280;40775;51.448;4.742;2022-08-07T15:32:31;102196.06;;;29.38;29.01
54882;BME280;40775;51.448;4.742;2022-08-07T15:35:22;102191.38;;;29.18;28.96
54882;BME280;40775;51.448;4.742;2022-08-07T15:38:11;102193.59;;;29.32;29.99
54882;BME280;40775;51.448;4.742;2022-08-07T15:41:08;102189.06;;;29.32;29.12
54882;BME280;40775;51.448;4.742;2022-08-07T15:44:08;102192.69;;;29.06;29.50
54882;BME280;40775;51.448;4.742;2022-08-07T15:46:37;102191.13;;;29.24;30.07
54882;BME280;40775;51.448;4.742;2022-08-07T15:49:18;102187.59;;;29.22;30.01
54882;BME280;40775;51.448;4.742;2022-08-07T15:52:10;102186.94;;;28.90;29.91
54882;BME280;40775;51.448;4.742;2022-08-07T15:54:43;102176.53;;;29.05;29.60
54882;BME280;40775;51.448;4.742;2022-08-07T15:57:22;102179.00;;;29.11;30.01
54882;BME280;40775;51.448;4.742;2022-08-07T16:00:11;102176.88;;;28.94;30.76
54882;BME280;40775;51.448;4.742;2022-08-07T16:03:02;102177.41;;;28.79;30.40
54882;BME280;40775;51.448;4.742;2022-08-07T16:05:30;102170.53;;;28.95;30.75
54882;BME280;40775;51.448;4.742;2022-08-07T16:08:18;102172.84;;;29.07;30.75
54882;BME280;40775;51.448;4.742;2022-08-07T16:24:40;102172.31;;;28.96;31.11
54882;BME280;40775;51.448;4.742;2022-08-07T16:27:33;102177.88;;;28.91;31.62
54882;BME280;40775;51.448;4.742;2022-08-07T16:30:14;102169.13;;;28.85;31.21
54882;BME280;40775;51.448;4.742;2022-08-07T16:33:06;102166.13;;;28.66;32.37
54882;BME280;40775;51.448;4.742;2022-08-07T16:45:58;102170.09;;;28.28;33.51